createdAt,value
2019-05-14T00:00:44.028Z,25.80
2019-05-14T00:03:16.927Z,26.55
2019-05-14T00:08:22.207Z,26.77
2019-05-14T00:10:57.506Z,28.67
2019-05-14T00:13:32.352Z,25.75
2019-05-14T00:16:05.881Z,28.42
2019-05-14T00:18:38.435Z,29.60
2019-05-14T00:21:12.220Z,31.57
2019-05-14T00:23:51.498Z,30.43
2019-05-14T00:26:24.868Z,30.30
2019-05-14T00:31:36.484Z,31.40
2019-05-14T00:34:11.027Z,29.80
2019-05-14T00:36:43.452Z,31.17
2019-05-14T00:39:16.978Z,33.60
2019-05-14T00:44:22.891Z,29.82
2019-05-14T00:46:55.719Z,28.85
2019-05-14T00:49:35.413Z,25.02
2019-05-14T00:52:11.506Z,30.57
2019-05-14T00:54:43.709Z,31.33
2019-05-14T00:59:47.841Z,31.05
2019-05-14T01:05:01.861Z,27.93
2019-05-14T01:07:34.444Z,31.12
2019-05-14T01:10:08.832Z,32.20
2019-05-14T01:12:41.858Z,28.50
2019-05-14T01:15:14.424Z,27.40
2019-05-14T01:17:51.624Z,23.07
2019-05-14T01:20:25.991Z,10.20
2019-05-14T01:23:02.305Z,28.05
2019-05-14T01:25:36.658Z,24.50
2019-05-14T01:28:11.265Z,11.22
2019-05-14T01:30:45.079Z,18.05
2019-05-14T01:33:17.822Z,30.00
2019-05-14T01:38:23.947Z,16.80
2019-05-14T01:43:31.287Z,27.10
2019-05-14T01:46:04.200Z,26.55
2019-05-14T01:48:36.970Z,12.78
2019-05-14T01:53:41.657Z,32.65
2019-05-14T01:56:14.401Z,30.02
2019-05-14T02:01:21.661Z,26.68
2019-05-14T02:03:53.334Z,23.87
2019-05-14T02:06:26.195Z,26.87
2019-05-14T02:08:59.177Z,27.65
2019-05-14T02:14:05.571Z,14.53
2019-05-14T02:16:38.072Z,9.75
2019-05-14T02:21:43.624Z,14.28
2019-05-14T02:24:16.495Z,16.77
2019-05-14T02:29:25.669Z,26.40
2019-05-14T02:31:58.957Z,24.40
2019-05-14T02:34:31.805Z,22.25
2019-05-14T02:37:04.704Z,19.67
2019-05-14T02:39:50.044Z,26.77
2019-05-14T02:42:19.867Z,24.25
2019-05-14T02:44:59.314Z,23.47
2019-05-14T02:47:41.601Z,25.52
2019-05-14T02:50:14.987Z,18.80
2019-05-14T02:52:51.845Z,23.42
2019-05-14T02:55:24.383Z,17.55
2019-05-14T02:57:59.888Z,23.30
2019-05-14T03:00:35.357Z,21.50
2019-05-14T03:03:11.486Z,20.08
2019-05-14T03:05:44.030Z,19.87
2019-05-14T03:11:00.605Z,21.33
2019-05-14T03:13:39.992Z,24.45
2019-05-14T03:16:28.159Z,19.73
2019-05-14T03:18:50.686Z,21.77
2019-05-14T03:21:23.908Z,22.10
2019-05-14T03:24:00.620Z,15.90
2019-05-14T03:26:31.536Z,26.02
2019-05-14T03:29:04.636Z,14.40
2019-05-14T03:31:41.899Z,15.60
2019-05-14T03:34:13.401Z,22.85
2019-05-14T03:36:51.837Z,17.52
2019-05-14T03:39:20.815Z,14.38
2019-05-14T03:41:58.714Z,15.13
2019-05-14T03:44:33.626Z,13.80
2019-05-14T03:47:10.339Z,7.90
2019-05-14T03:49:41.667Z,10.38
2019-05-14T03:52:15.439Z,16.15
2019-05-14T03:54:50.126Z,14.33
2019-05-14T03:57:22.664Z,10.80
2019-05-14T03:59:59.450Z,9.10
2019-05-14T04:02:38.959Z,12.70
2019-05-14T04:05:11.069Z,20.68
2019-05-14T04:07:45.978Z,23.00
2019-05-14T04:10:19.518Z,14.68
2019-05-14T04:12:54.185Z,11.30
2019-05-14T04:15:29.834Z,13.15
2019-05-14T04:18:02.738Z,12.75
2019-05-14T04:20:39.261Z,11.10
2019-05-14T04:23:13.083Z,13.05
2019-05-14T04:25:49.633Z,14.73
2019-05-14T04:28:22.498Z,21.55
2019-05-14T04:30:59.384Z,24.35
2019-05-14T04:33:30.700Z,12.65
2019-05-14T04:36:04.137Z,13.30
2019-05-14T04:38:40.458Z,13.93
2019-05-14T04:41:11.778Z,22.22
2019-05-14T04:43:44.627Z,16.07
2019-05-14T04:48:51.153Z,6.80
2019-05-14T04:51:23.866Z,14.83
2019-05-14T04:53:59.803Z,23.18
2019-05-14T04:56:33.445Z,21.90
2019-05-14T04:59:06.020Z,21.90
2019-05-14T05:01:40.102Z,18.60
2019-05-14T05:04:12.593Z,20.88
2019-05-14T05:06:45.553Z,15.68
2019-05-14T05:09:20.027Z,21.12
2019-05-14T05:11:52.695Z,18.77
2019-05-14T05:14:25.254Z,18.50
2019-05-14T05:16:59.678Z,18.87
2019-05-14T05:19:33.299Z,17.65
2019-05-14T05:22:08.025Z,9.03
2019-05-14T05:24:42.244Z,18.07
2019-05-14T05:27:18.535Z,16.48
2019-05-14T05:29:52.064Z,19.55
2019-05-14T05:32:24.660Z,18.75
2019-05-14T05:34:58.751Z,19.10
2019-05-14T05:37:33.870Z,19.65
2019-05-14T05:40:09.210Z,21.75
2019-05-14T05:42:45.386Z,13.05
2019-05-14T05:45:18.573Z,13.05
2019-05-14T05:47:57.435Z,17.30
2019-05-14T05:50:28.548Z,15.68
2019-05-14T05:53:00.634Z,17.95
2019-05-14T05:58:04.786Z,8.90
2019-05-14T06:00:39.877Z,11.55
2019-05-14T06:03:13.061Z,12.50
2019-05-14T06:05:45.593Z,15.10
2019-05-14T06:08:21.135Z,11.63
2019-05-14T06:10:54.810Z,12.60
2019-05-14T06:13:28.734Z,13.22
2019-05-14T06:16:02.069Z,12.78
2019-05-14T06:18:35.203Z,13.28
2019-05-14T06:21:09.177Z,10.68
2019-05-14T06:23:42.631Z,11.78
2019-05-14T06:26:18.768Z,11.95
2019-05-14T06:28:50.383Z,12.20
2019-05-14T06:31:23.048Z,13.58
2019-05-14T06:33:58.946Z,12.10
2019-05-14T06:36:30.038Z,11.70
2019-05-14T06:39:02.623Z,10.93
2019-05-14T06:44:09.051Z,9.60
2019-05-14T06:46:41.359Z,8.95
2019-05-14T06:49:13.914Z,10.18
2019-05-14T06:51:48.857Z,10.18
2019-05-14T06:54:20.649Z,8.85
2019-05-14T06:56:55.104Z,8.83
2019-05-14T06:59:28.850Z,8.35
2019-05-14T07:02:03.062Z,8.70
2019-05-14T07:04:39.178Z,9.48
2019-05-14T07:07:10.797Z,8.78
2019-05-14T07:09:44.139Z,8.63
2019-05-14T07:12:19.059Z,9.00
2019-05-14T07:14:51.060Z,7.97
2019-05-14T07:17:24.194Z,8.48
2019-05-14T07:19:58.288Z,8.80
2019-05-14T07:22:31.469Z,8.90
2019-05-14T07:25:04.806Z,8.93
2019-05-14T07:27:39.241Z,7.90
2019-05-14T07:30:14.234Z,9.38
2019-05-14T07:32:48.241Z,8.93
2019-05-14T07:35:20.812Z,8.28
2019-05-14T07:37:58.991Z,8.93
2019-05-14T07:40:29.167Z,9.05
2019-05-14T07:43:02.256Z,9.35
2019-05-14T07:48:08.689Z,9.48
2019-05-14T07:50:40.928Z,6.20
2019-05-14T07:53:15.030Z,8.65
2019-05-14T07:58:20.521Z,8.17
2019-05-14T08:00:58.378Z,6.80
2019-05-14T08:03:30.919Z,7.97
2019-05-14T08:06:03.552Z,8.40
2019-05-14T08:08:38.259Z,5.47
2019-05-14T08:11:10.086Z,7.47
2019-05-14T08:13:43.874Z,7.05
2019-05-14T08:16:18.659Z,7.55
2019-05-14T08:18:51.032Z,7.12
2019-05-14T08:21:23.852Z,7.72
2019-05-14T08:23:59.134Z,8.58
2019-05-14T08:26:32.077Z,7.90
2019-05-14T08:29:10.665Z,7.87
2019-05-14T08:31:48.609Z,8.55
2019-05-14T08:34:22.757Z,8.38
2019-05-14T08:36:55.414Z,8.28
2019-05-14T08:39:30.679Z,8.33
2019-05-14T08:42:04.430Z,9.18
2019-05-14T08:44:47.923Z,8.90
2019-05-14T08:47:20.863Z,7.33
2019-05-14T08:52:34.572Z,9.25
2019-05-14T08:55:10.895Z,9.53
2019-05-14T08:57:42.692Z,9.33
2019-05-14T09:02:48.567Z,11.85
2019-05-14T09:05:21.364Z,11.48
2019-05-14T09:10:28.375Z,9.73
2019-05-14T09:13:02.724Z,7.83
2019-05-14T09:15:38.490Z,8.88
2019-05-14T09:18:12.049Z,10.43
2019-05-14T09:20:44.888Z,7.37
2019-05-14T09:23:22.598Z,10.40
2019-05-14T09:25:55.245Z,11.15
2019-05-14T09:28:30.952Z,10.40
2019-05-14T09:31:04.070Z,10.48
2019-05-14T09:33:39.042Z,6.42
2019-05-14T09:36:22.784Z,9.70
2019-05-14T09:38:51.457Z,6.28
2019-05-14T09:41:27.592Z,7.60
2019-05-14T09:43:59.497Z,5.72
2019-05-14T09:46:31.918Z,7.53
2019-05-14T09:49:04.872Z,6.97
2019-05-14T09:51:40.222Z,5.22
2019-05-14T09:54:15.021Z,9.15
2019-05-14T09:56:48.542Z,9.20
2019-05-14T09:59:24.714Z,10.38
2019-05-14T10:01:58.798Z,6.67
2019-05-14T10:04:31.999Z,5.33
2019-05-14T10:07:05.252Z,9.70
2019-05-14T10:09:38.884Z,9.80
2019-05-14T10:12:11.932Z,9.38
2019-05-14T10:14:49.063Z,8.38
2019-05-14T10:17:22.347Z,11.38
2019-05-14T10:19:55.183Z,4.78
2019-05-14T10:22:28.549Z,8.83
2019-05-14T10:25:02.216Z,8.33
2019-05-14T10:27:36.592Z,6.08
2019-05-14T10:30:13.851Z,9.20
2019-05-14T10:32:49.264Z,6.67
2019-05-14T10:35:23.558Z,14.20
2019-05-14T10:37:59.833Z,8.15
2019-05-14T10:40:32.990Z,10.65
2019-05-14T10:43:10.444Z,12.82
2019-05-14T10:45:44.138Z,7.58
2019-05-14T10:48:18.542Z,9.48
2019-05-14T10:51:03.146Z,14.98
2019-05-14T10:53:28.669Z,6.92
2019-05-14T10:56:03.618Z,6.03
2019-05-14T10:58:36.280Z,10.53
2019-05-14T11:01:11.225Z,10.70
2019-05-14T11:03:44.599Z,9.15
2019-05-14T11:06:18.718Z,11.83
2019-05-14T11:08:51.838Z,13.83
2019-05-14T11:11:25.140Z,10.98
2019-05-14T11:13:59.954Z,14.53
2019-05-14T11:16:32.751Z,6.92
2019-05-14T11:19:09.060Z,14.07
2019-05-14T11:21:39.937Z,12.35
2019-05-14T11:24:13.245Z,10.50
2019-05-14T11:26:48.540Z,6.35
2019-05-14T11:29:20.599Z,8.70
2019-05-14T11:31:53.323Z,5.65
2019-05-14T11:34:38.770Z,7.90
2019-05-14T11:37:12.205Z,8.28
2019-05-14T11:42:20.422Z,6.05
2019-05-14T11:44:53.933Z,5.60
2019-05-14T11:47:28.166Z,6.20
2019-05-14T11:50:01.515Z,3.95
2019-05-14T11:52:35.310Z,9.18
2019-05-14T11:55:09.759Z,9.68
2019-05-14T11:57:43.799Z,9.65
2019-05-14T12:00:20.691Z,5.17
2019-05-14T12:02:54.305Z,9.83
2019-05-14T12:05:30.451Z,5.30
2019-05-14T12:08:02.531Z,5.37
2019-05-14T12:10:35.254Z,7.05
2019-05-14T12:13:08.537Z,5.15
2019-05-14T12:15:41.754Z,7.83
2019-05-14T12:20:49.709Z,7.72
2019-05-14T12:23:20.633Z,6.65
2019-05-14T12:25:53.595Z,7.25
2019-05-14T12:28:28.933Z,5.05
2019-05-14T12:31:00.827Z,5.10
2019-05-14T12:33:33.598Z,5.15
2019-05-14T12:38:38.281Z,6.90
2019-05-14T12:41:11.148Z,6.90
2019-05-14T12:43:43.892Z,6.00
2019-05-14T12:46:19.839Z,8.38
2019-05-14T12:49:06.699Z,5.90
2019-05-14T12:51:31.406Z,5.20
2019-05-14T12:54:05.605Z,5.72
2019-05-14T12:56:39.085Z,6.70
2019-05-14T12:59:11.966Z,6.33
2019-05-14T13:01:44.963Z,5.85
2019-05-14T13:04:20.070Z,5.25
2019-05-14T13:06:54.866Z,5.40
2019-05-14T13:09:28.135Z,4.78
2019-05-14T13:12:01.160Z,5.17
2019-05-14T13:14:39.500Z,4.92
2019-05-14T13:17:11.721Z,5.33
2019-05-14T13:22:41.548Z,4.33
2019-05-14T13:25:10.585Z,4.30
2019-05-14T13:27:52.973Z,4.22
2019-05-14T13:30:43.342Z,3.98
2019-05-14T13:33:10.636Z,3.87
2019-05-14T13:35:51.084Z,4.50
2019-05-14T13:38:23.582Z,5.25
2019-05-14T13:40:59.454Z,5.87
2019-05-14T13:43:55.019Z,5.50
2019-05-14T13:46:23.817Z,7.35
2019-05-14T13:48:59.083Z,12.25
2019-05-14T13:51:33.955Z,12.03
2019-05-14T13:54:08.472Z,8.73
2019-05-14T13:56:48.359Z,6.62
2019-05-14T13:59:21.539Z,4.75
2019-05-14T14:01:55.339Z,6.90
2019-05-14T14:04:28.222Z,6.40
2019-05-14T14:07:01.391Z,6.20
2019-05-14T14:12:08.181Z,4.90
2019-05-14T14:14:41.254Z,6.90
2019-05-14T14:17:18.271Z,7.22
2019-05-14T14:19:50.172Z,12.03
2019-05-14T14:22:22.914Z,8.60
2019-05-14T14:24:59.085Z,9.93
2019-05-14T14:27:30.319Z,8.00
2019-05-14T14:30:03.446Z,8.33
2019-05-14T14:32:36.671Z,8.95
2019-05-14T14:35:09.822Z,10.63
2019-05-14T14:37:45.052Z,15.83
2019-05-14T14:40:21.390Z,17.35
2019-05-14T14:42:52.242Z,15.48
2019-05-14T14:45:29.007Z,15.28
2019-05-14T14:48:01.284Z,17.82
2019-05-14T14:50:34.425Z,17.65
2019-05-14T14:53:09.291Z,13.98
2019-05-14T14:55:45.357Z,16.12
2019-05-14T14:58:20.008Z,12.93
2019-05-14T15:00:53.306Z,11.38
2019-05-14T15:03:29.615Z,9.40
2019-05-14T15:06:03.773Z,9.88
2019-05-14T15:11:39.400Z,9.30
2019-05-14T15:14:10.895Z,8.08
2019-05-14T15:16:45.112Z,12.35
2019-05-14T15:19:19.320Z,11.12
2019-05-14T15:21:52.808Z,6.45
2019-05-14T15:24:25.553Z,6.08
2019-05-14T15:27:15.145Z,7.40
2019-05-14T15:29:48.706Z,7.37
2019-05-14T15:32:20.813Z,8.03
2019-05-14T15:34:52.981Z,7.58
2019-05-14T15:37:31.239Z,7.92
2019-05-14T15:40:03.929Z,8.83
2019-05-14T15:42:35.374Z,8.10
2019-05-14T15:45:09.295Z,7.95
2019-05-14T15:47:42.665Z,6.20
2019-05-14T15:50:20.057Z,8.05
2019-05-14T15:52:53.008Z,7.40
2019-05-14T15:55:28.911Z,6.15
2019-05-14T15:58:03.905Z,6.20
2019-05-14T16:00:38.569Z,6.17
2019-05-14T16:03:11.158Z,5.50
2019-05-14T16:05:44.932Z,5.87
2019-05-14T16:08:22.581Z,6.22
2019-05-14T16:10:53.539Z,5.92
2019-05-14T16:13:28.542Z,6.70
2019-05-14T16:16:01.151Z,6.05
2019-05-14T16:18:34.412Z,6.53
2019-05-14T16:23:42.482Z,7.05
2019-05-14T16:26:18.791Z,7.85
2019-05-14T16:28:52.081Z,7.85
2019-05-14T16:34:09.744Z,8.57
2019-05-14T16:36:42.685Z,9.03
2019-05-14T16:39:16.072Z,7.90
2019-05-14T16:41:49.122Z,8.65
2019-05-14T16:44:21.860Z,9.48
2019-05-14T16:46:54.271Z,14.23
2019-05-14T16:49:29.393Z,15.55
2019-05-14T16:52:02.341Z,19.70
2019-05-14T16:54:35.406Z,60.28
2019-05-14T16:57:10.939Z,116.62
2019-05-14T16:59:42.266Z,106.15
2019-05-14T17:02:18.905Z,94.85
2019-05-14T17:04:50.809Z,102.78
2019-05-14T17:07:23.842Z,59.25
2019-05-14T17:09:58.133Z,107.95
2019-05-14T17:12:46.955Z,140.65
2019-05-14T17:15:04.727Z,100.40
2019-05-14T17:17:37.830Z,120.87
2019-05-14T17:20:11.258Z,128.57
2019-05-14T17:22:43.714Z,187.50
2019-05-14T17:25:26.669Z,129.97
2019-05-14T17:27:50.950Z,135.45
2019-05-14T17:32:58.974Z,134.50
2019-05-14T17:35:33.660Z,120.00
2019-05-14T17:38:09.077Z,159.27
2019-05-14T17:40:45.372Z,119.25
2019-05-14T17:43:23.258Z,146.15
2019-05-14T17:45:55.274Z,169.20
2019-05-14T17:48:28.466Z,106.70
2019-05-14T17:51:01.563Z,142.10
2019-05-14T17:53:34.134Z,92.95
2019-05-14T17:56:08.351Z,65.37
2019-05-14T17:58:40.699Z,74.37
2019-05-14T18:01:13.429Z,44.55
2019-05-14T18:03:48.842Z,71.02
2019-05-14T18:06:20.098Z,57.60
2019-05-14T18:08:52.738Z,49.23
2019-05-14T18:11:25.060Z,33.85
2019-05-14T18:13:58.960Z,35.13
2019-05-14T18:16:31.875Z,33.55
2019-05-14T18:19:04.519Z,34.60
2019-05-14T18:21:38.927Z,38.17
2019-05-14T18:24:13.326Z,38.53
2019-05-14T18:26:47.932Z,39.38
2019-05-14T18:29:21.510Z,73.47
2019-05-14T18:31:54.990Z,38.73
2019-05-14T18:34:28.454Z,45.60
2019-05-14T18:37:01.494Z,64.47
2019-05-14T18:39:34.410Z,45.88
2019-05-14T18:42:08.590Z,55.83
2019-05-14T18:45:34.106Z,56.85
2019-05-14T18:48:08.507Z,44.48
2019-05-14T18:50:41.187Z,38.38
2019-05-14T18:55:59.672Z,41.58
2019-05-14T18:58:32.767Z,40.67
2019-05-14T19:01:05.637Z,39.65
2019-05-14T19:03:39.619Z,42.48
2019-05-14T19:06:12.792Z,40.50
2019-05-14T19:11:18.387Z,47.35
2019-05-14T19:13:51.340Z,52.13
2019-05-14T19:16:28.668Z,38.55
2019-05-14T19:19:00.803Z,39.30
2019-05-14T19:21:33.354Z,41.40
2019-05-14T19:24:06.054Z,42.50
2019-05-14T19:26:40.383Z,45.85
2019-05-14T19:29:12.579Z,18.90
2019-05-14T19:31:47.969Z,40.63
2019-05-14T19:34:20.256Z,37.73
2019-05-14T19:36:52.743Z,31.33
2019-05-14T19:39:28.172Z,40.05
2019-05-14T19:42:00.757Z,37.20
2019-05-14T19:44:33.947Z,30.17
2019-05-14T19:49:38.258Z,31.17
2019-05-14T19:54:42.721Z,34.15
2019-05-14T19:57:15.131Z,15.85
2019-05-14T19:59:49.091Z,29.12
2019-05-14T20:02:22.221Z,32.67
2019-05-14T20:04:54.608Z,15.53
2019-05-14T20:07:27.979Z,28.80
2019-05-14T20:10:00.426Z,35.40
2019-05-14T20:12:33.652Z,25.82
2019-05-14T20:15:09.435Z,13.83
2019-05-14T20:17:42.005Z,27.25
2019-05-14T20:20:15.242Z,27.37
2019-05-14T20:23:01.246Z,23.60
2019-05-14T20:25:34.448Z,30.05
2019-05-14T20:30:40.017Z,33.20
2019-05-14T20:33:12.411Z,34.50
2019-05-14T20:35:45.434Z,31.02
2019-05-14T20:38:18.421Z,19.35
2019-05-14T20:40:51.767Z,17.07
2019-05-14T20:43:24.198Z,21.52
2019-05-14T20:45:59.464Z,31.48
2019-05-14T20:48:33.058Z,20.92
2019-05-14T20:51:08.834Z,21.45
2019-05-14T20:53:41.155Z,36.40
2019-05-14T20:56:13.960Z,25.95
2019-05-14T20:58:48.164Z,35.78
2019-05-14T21:01:21.316Z,36.30
2019-05-14T21:03:55.142Z,36.25
2019-05-14T21:06:28.254Z,36.13
2019-05-14T21:11:32.598Z,36.50
2019-05-14T21:14:05.977Z,31.02
2019-05-14T21:16:39.158Z,38.42
2019-05-14T21:19:12.373Z,41.23
2019-05-14T21:24:18.149Z,39.58
2019-05-14T21:26:51.963Z,41.53
2019-05-14T21:29:24.399Z,41.75
2019-05-14T21:32:01.329Z,44.70
2019-05-14T21:34:31.816Z,26.52
2019-05-14T21:37:04.377Z,41.42
2019-05-14T21:39:38.348Z,26.70
2019-05-14T21:42:13.388Z,40.55
2019-05-14T21:44:48.318Z,45.10
2019-05-14T21:47:20.336Z,43.85
2019-05-14T21:52:25.080Z,43.90
2019-05-14T21:54:58.616Z,38.13
2019-05-14T21:57:30.944Z,47.08
2019-05-14T22:00:03.689Z,48.40
2019-05-14T22:02:38.313Z,43.30
2019-05-14T22:05:11.232Z,44.38
2019-05-14T22:07:43.800Z,42.25
2019-05-14T22:10:18.985Z,48.17
2019-05-14T22:12:51.902Z,42.58
2019-05-14T22:15:24.789Z,45.65
2019-05-14T22:17:58.696Z,42.20
2019-05-14T22:20:31.743Z,44.38
2019-05-14T22:23:04.049Z,44.20
2019-05-14T22:25:39.108Z,44.33
2019-05-14T22:28:15.374Z,42.53
2019-05-14T22:30:45.455Z,46.70
2019-05-14T22:33:19.105Z,46.05
2019-05-14T22:35:52.054Z,53.73
2019-05-14T22:38:24.706Z,45.58
2019-05-14T22:40:59.257Z,48.35
2019-05-14T22:43:33.434Z,43.40
2019-05-14T22:48:38.591Z,45.83
2019-05-14T22:51:11.228Z,42.60
2019-05-14T22:53:44.288Z,44.60
2019-05-14T22:56:17.354Z,48.35
2019-05-14T22:58:50.219Z,48.45
2019-05-14T23:01:22.987Z,50.88
2019-05-14T23:04:00.347Z,47.23
2019-05-14T23:06:33.150Z,50.50
2019-05-14T23:11:38.479Z,46.60
2019-05-14T23:14:15.617Z,46.10
2019-05-14T23:16:49.165Z,48.75
2019-05-14T23:19:22.737Z,44.53
2019-05-14T23:21:58.023Z,42.90
2019-05-14T23:24:30.520Z,40.25
2019-05-14T23:27:03.346Z,43.63
2019-05-14T23:29:38.350Z,40.98
2019-05-14T23:32:10.104Z,43.30
2019-05-14T23:37:14.219Z,42.38
2019-05-14T23:39:48.945Z,36.23
2019-05-14T23:42:21.614Z,37.28
2019-05-14T23:44:54.470Z,40.75
2019-05-14T23:47:28.953Z,28.55
2019-05-14T23:50:01.550Z,29.65
2019-05-14T23:52:34.073Z,30.80
2019-05-14T23:55:08.595Z,29.98
2019-05-14T23:57:41.699Z,29.55
